Item Display Status Humidity-temperature Sensor

Elevation Above Sea Level: 3 m

 

Deployed Sensor

  • Serial Number: 61303730
  • NDBC Property Number: 38755
  • Start Date: 2/8/2017 (08:39:07 Z)
  • End Date: 5/3/2018 (14:40:00 Z)
Air Temperature [°C]     6 entries per hour
Showing data from 7/28/2017 (21:00:00 Z) to 7/27/2017 (00:00:01 Z)
Previous Next [ Day | 3-Days | 7-Days ]
First Last
Prev [ Day | 3-Days | 7-Days ] Next
First Last

Start Time:     :
End Time:     :     
Time (in GMT) :00 :50 :40 :30 :20 :10
Previous Next [ Day | 3-Days | 7-Days ]
First Last
Prev [ Day | 3-Days | 7-Days ] Next
First Last


123 => good data
MM => data is determined as missing
-- => data not received/configured
Back to Top Back to Top
7/28/2017 21:00 to 20:10 24.17 23.77 24.39 24.69 23.98 24.12
7/28/2017 20:00 to 19:10 23.98 23.97 24.03 23.84 23.92 24.02
7/28/2017 19:00 to 18:10 23.86 23.95 23.96 23.96 24.02 24.06
7/28/2017 18:00 to 17:10 23.96 23.94 23.83 24.04 24.13 24.20
7/28/2017 17:00 to 16:10 24.09 24.10 24.23 24.18 24.06 23.79
7/28/2017 16:00 to 15:10 23.92 24.03 23.93 23.79 24.28 23.83
7/28/2017 15:00 to 14:10 23.90 23.80 23.77 23.84 23.58 23.64
7/28/2017 14:00 to 13:10 23.67 23.63 23.59 23.65 23.52 23.37
7/28/2017 13:00 to 12:10 23.54 23.59 23.51 23.47 23.52 23.39
7/28/2017 12:00 to 11:10 23.52 23.60 23.55 23.52 23.56 23.61
7/28/2017 11:00 to 10:10 23.59 23.57 23.51 23.54 23.41 23.27
7/28/2017 10:00 to 9:10 23.28 23.03 23.53 23.52 23.64 23.67
7/28/2017 09:00 to 8:10 23.55 23.84 23.73 23.69 23.64 23.61
7/28/2017 08:00 to 7:10 23.72 23.77 23.63 23.79 23.75 23.74
7/28/2017 07:00 to 6:10 23.66 23.63 23.59 23.69 23.72 23.54
7/28/2017 06:00 to 5:10 23.60 23.74 23.73 23.83 23.83 23.74
7/28/2017 05:00 to 4:10 23.81 23.70 23.75 23.83 23.75 23.77
7/28/2017 04:00 to 3:10 23.81 23.87 23.77 23.64 23.77 23.75
7/28/2017 03:00 to 2:10 23.69 23.78 23.79 23.72 23.71 23.78
7/28/2017 02:00 to 1:10 23.71 23.72 23.60 23.61 23.79 23.80
7/28/2017 01:00 to 0:10 23.87 23.79 23.86 23.81 23.86 23.94
7/28/2017 00:00 to 23:10 23.83 23.89 23.91 24.08 23.85 23.84
7/27/2017 23:00 to 22:10 24.11 23.86 23.89 23.95 23.96 23.97
7/27/2017 22:00 to 21:10 23.84 23.68 23.84 23.68 23.65 23.62
7/27/2017 21:00 to 20:10 23.72 23.54 23.65 23.74 23.51 23.36
7/27/2017 20:00 to 19:10 23.37 23.78 23.86 23.93 23.70 23.60
7/27/2017 19:00 to 18:10 23.75 23.70 23.75 23.77 24.00 24.01
7/27/2017 18:00 to 17:10 23.99 23.75 23.66 23.79 23.51 23.64
7/27/2017 17:00 to 16:10 23.73 23.63 23.76 24.01 23.81 23.51
7/27/2017 16:00 to 15:10 23.52 23.38 23.34 23.29 23.09 23.19
7/27/2017 15:00 to 14:10 23.37 23.27 23.50 23.56 23.59 23.52
7/27/2017 14:00 to 13:10 23.42 23.64 23.39 23.33 23.56 23.60
7/27/2017 13:00 to 12:10 23.51 23.57 23.45 23.38 23.48 23.40
7/27/2017 12:00 to 11:10 23.15 23.48 23.46 23.33 23.28 23.19
7/27/2017 11:00 to 10:10 23.00 23.22 23.37 23.78 23.41 23.68
7/27/2017 10:00 to 9:10 23.49 23.50 23.59 23.45 23.56 23.49
7/27/2017 09:00 to 8:10 23.45 23.34 23.30 23.51 23.43 23.48
7/27/2017 08:00 to 7:10 23.55 23.52 23.51 23.50 23.69 23.66
7/27/2017 07:00 to 6:10 23.75 23.55 23.48 23.64 23.65 23.66
7/27/2017 06:00 to 5:10 23.79 23.63 23.69 23.46 23.46 23.46
7/27/2017 05:00 to 4:10 23.32 23.22 22.78 22.92 23.45 23.44
7/27/2017 04:00 to 3:10 23.36 23.35 23.39 23.44 23.57 23.54
7/27/2017 03:00 to 2:10 23.56 23.28 23.51 23.46 23.03 22.90
7/27/2017 02:00 to 1:10 23.59 23.61 23.78 23.58 23.67 23.68
7/27/2017 01:00 to 0:10 23.94 23.60 23.89 23.86 23.98 23.97